Contact Us:
Email: info@sawbill.com
Phone: (218)663-7150
Fax: (218)663-7980
Mail: 4620 Sawbill Trail
Box 2129
Tofte, MN 55615


Powered by
Movable Type 3.15
 
Sawbill Weather History Archives: September 2009
Current Sawbill Weather History | « August 2009 | October 2009 »


Date

High
Temperature

Low
Temperature

Barometric
Pressure

Relative
Humidity 7AM

9 AM
Temperature

Moisture

Snow

9/30/09 50 29 30.30 98% 38 0
9/29/09 47 29 30.45 85% 29 0
9/28/09 44 36 30.30 94% 36 .22"
9/27/09 58 44 29.65 97% 44 .62"
9/26/09 63 51 29.65 98% 52 Trace
9/25/09 65 53 30.21 98% 55 0
9/24/09 72 41 30.47 93% 53 0
9/23/09 65 42 30.45 85% 43 0
9/22/09 68 51 30.42 94% 51 Trace
9/21/09 69 52 30.27 92% 53 0
9/20/09 70 51 30.18 92% 52 0
9/19/09 74 48 30.33 94% 53 0
9/18/09 62 43 30.47 98% 48 0
9/17/09 71 47 30.53 94% 49 0
9/16/09 62 48 30.42 98% 57 0
9/15/09 71 51 30.59 91% 51 0
9/14/09 73 52 30.05 91% 54 0
9/13/09 73 57 30.20 94% 57 0
9/12/09 71 55 30.45 93% 56 .09"
9/11/09 73 55 30.47 90% 55 0
9/10/09 71 55 30.50 92% 56 0
9/9/09 67 54 30.50 98% 57 1.03"
9/8/09 71 50 30.42 92% 54 0
9/7/09 74 50 30.45 81% 50 0
9/6/09 74 53 30.47 83% 61 0
9/5/09 71 49 30.50 88% 53 0
9/4/09 73 49 30.50 83% 50 0
9/3/09 71 46 30.45 94% 57 0
9/2/09 73 41 30.45 94% 42 0
9/1/09 68 47 30.47 80% 47 0
 


Home I Trip Planning I Rentals and Outfitting I Reservations I Campgrounds I Sawbill Store I Sawbill News I Contact

© 1997 - 2017, Sawbill Canoe Outfitters, Inc. I Privacy Policy